createdAt,value
2022-12-11T00:02:19.523Z,59.93
2022-12-11T00:04:51.896Z,59.64
2022-12-11T00:07:24.193Z,60.27
2022-12-11T00:09:58.133Z,60.69
2022-12-11T00:12:30.693Z,60.73
2022-12-11T00:15:03.031Z,60.71
2022-12-11T00:17:35.176Z,60.78
2022-12-11T00:20:09.348Z,60.70
2022-12-11T00:22:41.445Z,60.79
2022-12-11T00:25:13.785Z,60.55
2022-12-11T00:27:48.513Z,61.07
2022-12-11T00:30:20.809Z,60.82
2022-12-11T00:32:54.119Z,60.94
2022-12-11T00:35:26.521Z,61.58
2022-12-11T00:37:58.671Z,61.40
2022-12-11T00:40:30.802Z,60.91
2022-12-11T00:43:03.251Z,61.54
2022-12-11T00:45:38.994Z,61.59
2022-12-11T00:48:11.617Z,61.90
2022-12-11T00:50:44.128Z,61.64
2022-12-11T00:53:16.304Z,61.49
2022-12-11T00:55:48.428Z,61.01
2022-12-11T00:58:20.862Z,61.24
2022-12-11T01:00:53.392Z,61.28
2022-12-11T01:03:25.586Z,60.71
2022-12-11T01:05:58.091Z,60.35
2022-12-11T01:08:34.061Z,60.32
2022-12-11T01:11:12.705Z,60.40
2022-12-11T01:13:46.379Z,60.17
2022-12-11T01:16:18.972Z,60.15
2022-12-11T01:18:51.126Z,60.03
2022-12-11T01:21:23.285Z,59.90
2022-12-11T01:23:55.587Z,60.07
2022-12-11T01:26:27.691Z,60.24
2022-12-11T01:29:00.255Z,60.53
2022-12-11T01:31:32.562Z,59.98
2022-12-11T01:34:04.805Z,59.96
2022-12-11T01:36:36.985Z,60.61
2022-12-11T01:39:09.277Z,60.79
2022-12-11T01:41:41.438Z,60.48
2022-12-11T01:44:44.196Z,60.00
2022-12-11T01:47:16.895Z,59.70
2022-12-11T01:49:49.030Z,59.94
2022-12-11T01:52:23.688Z,60.19
2022-12-11T01:54:56.401Z,60.33
2022-12-11T01:57:28.627Z,60.29
2022-12-11T02:00:00.850Z,60.43
2022-12-11T02:02:34.335Z,60.25
2022-12-11T02:05:09.420Z,60.47
2022-12-11T02:07:45.825Z,60.59
2022-12-11T02:10:18.500Z,60.70
2022-12-11T02:13:00.725Z,60.71
2022-12-11T02:15:38.505Z,60.99
2022-12-11T02:18:21.472Z,60.56
2022-12-11T02:21:02.792Z,60.31
2022-12-11T02:23:53.989Z,60.12
2022-12-11T02:26:41.582Z,59.75
2022-12-11T02:29:19.355Z,59.56
2022-12-11T02:31:57.840Z,59.84
2022-12-11T02:34:35.352Z,60.16
2022-12-11T02:37:12.651Z,60.36
2022-12-11T02:39:47.285Z,60.62
2022-12-11T02:42:21.586Z,60.60
2022-12-11T02:44:55.370Z,60.30
2022-12-11T02:47:31.352Z,60.26
2022-12-11T02:50:08.656Z,60.32
2022-12-11T02:52:42.438Z,60.42
2022-12-11T02:55:16.824Z,60.43
2022-12-11T02:57:52.690Z,60.04
2022-12-11T03:00:25.516Z,59.86
2022-12-11T03:02:58.052Z,59.54
2022-12-11T03:05:31.019Z,57.90
2022-12-11T03:08:03.284Z,58.93
2022-12-11T03:10:35.780Z,60.45
2022-12-11T03:13:08.335Z,65.32
2022-12-11T03:15:56.449Z,67.14
2022-12-11T03:18:37.174Z,66.76
2022-12-11T03:21:15.933Z,65.70
2022-12-11T03:23:55.875Z,64.90
2022-12-11T03:26:28.166Z,64.07
2022-12-11T03:29:04.090Z,63.77
2022-12-11T03:31:44.053Z,63.89
2022-12-11T03:34:20.973Z,65.04
2022-12-11T03:36:55.145Z,64.13
2022-12-11T03:39:32.340Z,65.39
2022-12-11T03:42:10.658Z,64.22
2022-12-11T03:44:42.371Z,62.38
2022-12-11T03:47:19.509Z,62.42
2022-12-11T03:49:53.398Z,62.40
2022-12-11T03:52:27.632Z,62.91
2022-12-11T03:55:04.274Z,63.03
2022-12-11T03:57:38.838Z,62.22
2022-12-11T04:00:15.260Z,62.01
2022-12-11T04:03:12.969Z,61.93
2022-12-11T04:05:48.543Z,62.05
2022-12-11T04:08:21.935Z,62.41
2022-12-11T04:11:15.197Z,62.50
2022-12-11T04:14:07.883Z,62.44
2022-12-11T04:16:40.114Z,62.44
2022-12-11T04:19:30.167Z,62.85
2022-12-11T04:22:20.122Z,62.77
2022-12-11T04:24:53.552Z,62.30
2022-12-11T04:27:43.477Z,62.06
2022-12-11T04:30:18.711Z,61.83
2022-12-11T04:32:55.323Z,61.69
2022-12-11T04:35:27.548Z,60.94
2022-12-11T04:37:59.792Z,60.63
2022-12-11T04:40:32.002Z,60.79
2022-12-11T04:43:04.181Z,60.99
2022-12-11T04:45:36.839Z,60.88
2022-12-11T04:48:09.607Z,60.45
2022-12-11T04:50:41.718Z,60.29
2022-12-11T04:53:13.818Z,61.26
2022-12-11T04:55:46.008Z,62.69
2022-12-11T04:58:18.143Z,63.10
2022-12-11T05:00:50.361Z,62.22
2022-12-11T05:03:23.460Z,62.10
2022-12-11T05:05:56.422Z,62.62
2022-12-11T05:08:28.571Z,63.28
2022-12-11T05:11:02.098Z,63.02
2022-12-11T05:13:36.110Z,62.14
2022-12-11T05:16:10.017Z,61.87
2022-12-11T05:18:42.277Z,61.86
2022-12-11T05:21:16.261Z,60.92
2022-12-11T05:23:48.414Z,61.56
2022-12-11T05:26:21.664Z,61.56
2022-12-11T05:28:55.781Z,60.92
2022-12-11T05:31:29.388Z,60.25
2022-12-11T05:34:01.646Z,59.80
2022-12-11T05:36:35.193Z,57.81
2022-12-11T05:39:07.807Z,57.10
2022-12-11T05:41:40.301Z,59.72
2022-12-11T05:44:14.620Z,63.95
2022-12-11T05:46:46.836Z,65.74
2022-12-11T05:49:20.124Z,65.43
2022-12-11T05:51:52.548Z,64.71
2022-12-11T05:54:24.672Z,65.34
2022-12-11T05:56:56.788Z,65.31
2022-12-11T05:59:28.962Z,64.00
2022-12-11T06:02:01.233Z,63.06
2022-12-11T06:04:34.502Z,61.62
2022-12-11T06:07:06.768Z,61.00
2022-12-11T06:09:38.885Z,61.01
2022-12-11T06:12:11.090Z,60.70
2022-12-11T06:14:43.365Z,60.48
2022-12-11T06:17:15.695Z,60.44
2022-12-11T06:19:47.826Z,59.97
2022-12-11T06:22:20.019Z,60.28
2022-12-11T06:24:52.202Z,60.95
2022-12-11T06:27:24.549Z,60.54
2022-12-11T06:29:57.178Z,60.37
2022-12-11T06:32:29.769Z,60.25
2022-12-11T06:35:01.901Z,60.33
2022-12-11T06:37:34.075Z,60.46
2022-12-11T06:40:08.437Z,60.00
2022-12-11T06:42:40.583Z,59.90
2022-12-11T06:45:13.940Z,59.86
2022-12-11T06:47:46.030Z,60.21
2022-12-11T06:50:18.376Z,60.47
2022-12-11T06:52:50.567Z,60.50
2022-12-11T06:55:22.903Z,60.55
2022-12-11T06:57:55.348Z,60.22
2022-12-11T07:00:27.593Z,59.68
2022-12-11T07:02:59.754Z,58.14
2022-12-11T07:05:32.270Z,57.81
2022-12-11T07:08:04.541Z,59.44
2022-12-11T07:10:40.477Z,63.25
2022-12-11T07:13:12.588Z,66.19
2022-12-11T07:15:44.727Z,65.90
2022-12-11T07:18:16.956Z,65.58
2022-12-11T07:20:49.071Z,64.42
2022-12-11T07:23:21.378Z,63.73
2022-12-11T07:25:53.781Z,62.78
2022-12-11T07:28:26.337Z,62.00
2022-12-11T07:30:58.518Z,61.94
2022-12-11T07:33:30.659Z,61.32
2022-12-11T07:36:06.000Z,61.37
2022-12-11T07:38:38.636Z,60.83
2022-12-11T07:41:12.919Z,59.99
2022-12-11T07:43:45.554Z,60.31
2022-12-11T07:46:19.412Z,60.44
2022-12-11T07:48:52.589Z,60.56
2022-12-11T07:51:28.127Z,60.53
2022-12-11T07:54:02.255Z,61.68
2022-12-11T07:56:35.071Z,62.09
2022-12-11T07:59:08.440Z,61.50
2022-12-11T08:01:42.608Z,60.50
2022-12-11T08:04:16.042Z,60.66
2022-12-11T08:06:48.359Z,59.76
2022-12-11T08:09:22.768Z,60.05
2022-12-11T08:11:55.363Z,60.34
2022-12-11T08:14:30.525Z,59.98
2022-12-11T08:17:02.885Z,58.47
2022-12-11T08:19:35.398Z,57.63
2022-12-11T08:22:10.196Z,58.38
2022-12-11T08:24:42.419Z,60.75
2022-12-11T08:27:14.742Z,64.09
2022-12-11T08:29:47.674Z,66.21
2022-12-11T08:32:19.858Z,66.10
2022-12-11T08:34:53.961Z,65.10
2022-12-11T08:37:26.104Z,64.65
2022-12-11T08:39:58.518Z,64.49
2022-12-11T08:42:31.244Z,64.55
2022-12-11T08:45:03.835Z,64.30
2022-12-11T08:47:36.241Z,64.61
2022-12-11T08:50:09.584Z,64.69
2022-12-11T08:52:42.093Z,64.17
2022-12-11T08:55:14.467Z,62.82
2022-12-11T08:57:46.866Z,61.32
2022-12-11T09:00:20.163Z,60.93
2022-12-11T09:02:52.781Z,60.18
2022-12-11T09:05:25.189Z,58.59
2022-12-11T09:07:57.411Z,57.52
2022-12-11T09:10:30.392Z,58.86
2022-12-11T09:13:02.773Z,61.01
2022-12-11T09:15:36.183Z,63.46
2022-12-11T09:18:08.812Z,65.83
2022-12-11T09:20:41.466Z,66.12
2022-12-11T09:23:13.780Z,64.87
2022-12-11T09:25:46.126Z,64.21
2022-12-11T09:28:18.256Z,62.98
2022-12-11T09:30:50.803Z,62.65
2022-12-11T09:33:23.140Z,62.34
2022-12-11T09:36:01.865Z,62.57
2022-12-11T09:38:34.927Z,62.10
2022-12-11T09:41:36.688Z,61.12
2022-12-11T09:44:25.787Z,62.13
2022-12-11T09:46:58.777Z,61.95
2022-12-11T09:49:37.818Z,61.06
2022-12-11T09:52:16.786Z,61.80
2022-12-11T09:54:54.036Z,61.90
2022-12-11T09:57:45.882Z,61.04
2022-12-11T10:00:25.765Z,62.32
2022-12-11T10:03:15.713Z,61.81
2022-12-11T10:05:53.934Z,61.05
2022-12-11T10:08:33.120Z,60.39
2022-12-11T10:11:22.882Z,59.84
2022-12-11T10:14:03.267Z,57.50
2022-12-11T10:16:41.829Z,57.28
2022-12-11T10:19:16.519Z,59.63
2022-12-11T10:21:51.025Z,60.22
2022-12-11T10:25:07.755Z,64.27
2022-12-11T10:27:31.223Z,66.71
2022-12-11T10:30:16.003Z,65.38
2022-12-11T10:32:54.939Z,65.07
2022-12-11T10:35:32.575Z,64.00
2022-12-11T10:38:15.335Z,63.58
2022-12-11T10:40:54.564Z,62.28
2022-12-11T10:43:38.522Z,61.26
2022-12-11T10:46:19.417Z,61.16
2022-12-11T10:48:54.591Z,61.07
2022-12-11T10:51:35.387Z,60.73
2022-12-11T10:54:18.553Z,60.26
2022-12-11T10:56:52.096Z,59.67
2022-12-11T10:59:32.021Z,58.24
2022-12-11T11:02:06.105Z,58.04
2022-12-11T11:04:40.495Z,59.59
2022-12-11T11:07:20.086Z,60.99
2022-12-11T11:09:54.562Z,64.01
2022-12-11T11:12:29.098Z,66.27
2022-12-11T11:15:09.278Z,65.06
2022-12-11T11:17:54.622Z,63.94
2022-12-11T11:20:29.954Z,63.78
2022-12-11T11:23:05.018Z,62.48
2022-12-11T11:25:37.359Z,60.10
2022-12-11T11:28:19.724Z,57.74
2022-12-11T11:31:03.836Z,57.35
2022-12-11T11:33:39.174Z,59.11
2022-12-11T11:36:23.883Z,60.85
2022-12-11T11:39:10.074Z,63.10
2022-12-11T11:41:50.982Z,65.06
2022-12-11T11:44:30.650Z,65.75
2022-12-11T11:47:08.380Z,64.36
2022-12-11T11:49:53.007Z,61.77
2022-12-11T11:52:32.184Z,59.87
2022-12-11T11:55:10.960Z,56.55
2022-12-11T11:57:48.027Z,56.27
2022-12-11T12:00:27.598Z,57.73
2022-12-11T12:03:10.339Z,59.29
2022-12-11T12:05:51.437Z,61.33
2022-12-11T12:08:36.375Z,63.99
2022-12-11T12:11:20.424Z,65.50
2022-12-11T12:14:22.466Z,65.32
2022-12-11T12:17:07.756Z,61.69
2022-12-11T12:19:51.516Z,61.17
2022-12-11T12:22:45.059Z,60.70
2022-12-11T12:25:25.414Z,58.01
2022-12-11T12:28:06.584Z,56.88
2022-12-11T12:30:50.734Z,58.18
2022-12-11T12:33:32.554Z,60.26
2022-12-11T12:36:16.632Z,63.25
2022-12-11T12:38:56.581Z,65.55
2022-12-11T12:41:41.127Z,65.37
2022-12-11T12:44:18.361Z,62.50
2022-12-11T12:47:12.546Z,60.77
2022-12-11T12:49:46.976Z,57.34
2022-12-11T12:52:22.292Z,56.17
2022-12-11T12:55:18.907Z,57.64
2022-12-11T12:57:53.906Z,59.05
2022-12-11T13:00:35.762Z,61.53
2022-12-11T13:03:20.365Z,64.65
2022-12-11T13:06:02.388Z,65.42
2022-12-11T13:08:41.221Z,64.72
2022-12-11T13:11:16.774Z,64.12
2022-12-11T13:13:54.957Z,63.55
2022-12-11T13:16:39.261Z,63.27
2022-12-11T13:19:32.089Z,62.91
2022-12-11T13:22:21.405Z,62.29
2022-12-11T13:25:02.108Z,62.62
2022-12-11T13:27:43.674Z,61.70
2022-12-11T13:30:28.540Z,61.20
2022-12-11T13:33:07.048Z,60.63
2022-12-11T13:35:40.434Z,60.75
2022-12-11T13:38:20.945Z,60.62
2022-12-11T13:40:57.784Z,59.74
2022-12-11T13:43:32.387Z,57.71
2022-12-11T13:46:09.461Z,57.65
2022-12-11T13:48:47.854Z,58.99
2022-12-11T13:51:20.293Z,60.92
2022-12-11T13:54:03.116Z,61.86
2022-12-11T13:56:36.389Z,65.50
2022-12-11T13:59:19.665Z,66.89
2022-12-11T14:01:54.267Z,66.28
2022-12-11T14:04:28.427Z,65.20
2022-12-11T14:07:02.557Z,64.48
2022-12-11T14:09:34.988Z,64.03
2022-12-11T14:12:08.118Z,64.01
2022-12-11T14:14:47.217Z,64.22
2022-12-11T14:17:26.249Z,64.63
2022-12-11T14:20:01.061Z,63.84
2022-12-11T14:22:33.365Z,63.55
2022-12-11T14:25:22.411Z,62.84
2022-12-11T14:27:56.402Z,62.09
2022-12-11T14:30:31.267Z,61.45
2022-12-11T14:33:06.420Z,62.09
2022-12-11T14:35:43.073Z,61.77
2022-12-11T14:38:25.628Z,60.06
2022-12-11T14:41:01.068Z,56.98
2022-12-11T14:43:37.737Z,56.37
2022-12-11T14:46:15.642Z,57.78
2022-12-11T14:48:59.074Z,59.34
2022-12-11T14:51:36.040Z,61.65
2022-12-11T14:54:09.819Z,66.16
2022-12-11T14:56:42.564Z,68.63
2022-12-11T14:59:26.990Z,66.72
2022-12-11T15:02:23.105Z,63.62
2022-12-11T15:05:08.922Z,61.51
2022-12-11T15:07:41.763Z,59.66
2022-12-11T15:10:32.518Z,56.46
2022-12-11T15:13:05.956Z,54.86
2022-12-11T15:15:46.243Z,56.54
2022-12-11T15:18:23.834Z,58.54
2022-12-11T15:20:59.043Z,60.17
2022-12-11T15:23:32.228Z,64.21
2022-12-11T15:26:05.273Z,67.50
2022-12-11T15:28:39.374Z,65.35
2022-12-11T15:31:28.026Z,63.31
2022-12-11T15:34:00.973Z,61.18
2022-12-11T15:36:37.006Z,59.66
2022-12-11T15:39:10.243Z,56.71
2022-12-11T15:41:44.633Z,55.43
2022-12-11T15:44:22.738Z,57.17
2022-12-11T15:46:54.936Z,59.03
2022-12-11T15:49:27.217Z,60.57
2022-12-11T15:51:59.334Z,64.93
2022-12-11T15:54:31.943Z,68.20
2022-12-11T15:57:08.973Z,65.44
2022-12-11T15:59:41.517Z,62.89
2022-12-11T16:02:14.974Z,60.89
2022-12-11T16:04:47.323Z,59.86
2022-12-11T16:07:22.500Z,57.12
2022-12-11T16:09:55.093Z,55.93
2022-12-11T16:12:27.418Z,57.44
2022-12-11T16:15:01.283Z,60.02
2022-12-11T16:17:33.623Z,63.92
2022-12-11T16:20:06.914Z,66.78
2022-12-11T16:22:39.641Z,64.65
2022-12-11T16:25:14.549Z,62.85
2022-12-11T16:27:47.170Z,60.62
2022-12-11T16:30:19.530Z,58.01
2022-12-11T16:32:52.105Z,57.27
2022-12-11T16:35:24.735Z,58.33
2022-12-11T16:37:57.423Z,59.57
2022-12-11T16:40:29.728Z,64.02
2022-12-11T16:43:01.921Z,66.89
2022-12-11T16:45:34.648Z,64.51
2022-12-11T16:48:07.724Z,62.70
2022-12-11T16:50:42.413Z,60.89
2022-12-11T16:53:14.844Z,59.85
2022-12-11T16:55:47.228Z,57.03
2022-12-11T16:58:20.325Z,55.72
2022-12-11T17:00:52.859Z,57.47
2022-12-11T17:03:25.151Z,59.71
2022-12-11T17:05:58.110Z,63.64
2022-12-11T17:08:30.434Z,66.97
2022-12-11T17:11:05.651Z,64.65
2022-12-11T17:13:38.081Z,62.44
2022-12-11T17:16:12.303Z,60.99
2022-12-11T17:18:45.078Z,57.89
2022-12-11T17:21:19.089Z,56.84
2022-12-11T17:23:52.965Z,58.45
2022-12-11T17:26:25.620Z,60.34
2022-12-11T17:28:58.950Z,64.64
2022-12-11T17:31:31.302Z,66.98
2022-12-11T17:34:03.761Z,64.86
2022-12-11T17:36:36.223Z,62.12
2022-12-11T17:39:09.077Z,60.38
2022-12-11T17:41:41.376Z,57.30
2022-12-11T17:44:13.811Z,56.69
2022-12-11T17:46:46.085Z,58.39
2022-12-11T17:49:18.341Z,60.74
2022-12-11T17:51:55.468Z,64.73
2022-12-11T17:54:27.821Z,66.76
2022-12-11T17:57:00.312Z,64.75
2022-12-11T17:59:32.718Z,62.57
2022-12-11T18:02:05.251Z,60.87
2022-12-11T18:04:38.583Z,58.10
2022-12-11T18:07:10.731Z,57.27
2022-12-11T18:09:44.587Z,58.48
2022-12-11T18:12:17.061Z,60.03
2022-12-11T18:14:49.577Z,63.98
2022-12-11T18:17:22.425Z,66.89
2022-12-11T18:19:54.824Z,64.77
2022-12-11T18:22:28.825Z,61.68
2022-12-11T18:25:05.075Z,60.04
2022-12-11T18:27:42.100Z,56.73
2022-12-11T18:30:16.333Z,56.19
2022-12-11T18:32:48.774Z,56.94
2022-12-11T18:35:21.701Z,59.21
2022-12-11T18:37:54.064Z,63.58
2022-12-11T18:40:31.242Z,66.59
2022-12-11T18:43:03.505Z,64.65
2022-12-11T18:45:35.897Z,62.61
2022-12-11T18:48:11.389Z,60.83
2022-12-11T18:50:48.584Z,58.80
2022-12-11T18:53:21.181Z,56.57
2022-12-11T18:55:58.593Z,57.56
2022-12-11T18:58:32.619Z,59.48
2022-12-11T19:01:10.701Z,61.43
2022-12-11T19:03:43.500Z,65.68
2022-12-11T19:06:18.248Z,68.21
2022-12-11T19:08:50.973Z,65.30
2022-12-11T19:11:25.602Z,63.39
2022-12-11T19:13:59.068Z,61.62
2022-12-11T19:16:33.996Z,60.04
2022-12-11T19:19:09.981Z,57.99
2022-12-11T19:21:43.418Z,56.76
2022-12-11T19:24:19.192Z,57.94
2022-12-11T19:26:52.198Z,60.63
2022-12-11T19:29:32.554Z,64.51
2022-12-11T19:32:06.334Z,67.04
2022-12-11T19:34:39.622Z,65.18
2022-12-11T19:37:12.243Z,63.10
2022-12-11T19:39:44.942Z,61.76
2022-12-11T19:42:17.314Z,60.70
2022-12-11T19:44:49.483Z,57.88
2022-12-11T19:47:21.718Z,56.89
2022-12-11T19:49:54.776Z,58.51
2022-12-11T19:52:28.670Z,60.34
2022-12-11T19:55:05.896Z,63.11
2022-12-11T19:57:38.591Z,66.53
2022-12-11T20:00:12.744Z,65.22
2022-12-11T20:02:45.243Z,63.09
2022-12-11T20:05:17.994Z,61.28
2022-12-11T20:07:50.857Z,59.94
2022-12-11T20:10:23.331Z,57.42
2022-12-11T20:12:56.761Z,57.05
2022-12-11T20:15:30.785Z,59.29
2022-12-11T20:18:04.278Z,61.39
2022-12-11T20:20:36.593Z,65.14
2022-12-11T20:23:10.578Z,67.26
2022-12-11T20:25:43.341Z,64.91
2022-12-11T20:28:15.722Z,62.40
2022-12-11T20:30:50.094Z,60.92
2022-12-11T20:33:22.681Z,57.91
2022-12-11T20:35:55.269Z,56.38
2022-12-11T20:38:32.816Z,56.91
2022-12-11T20:41:07.348Z,59.62
2022-12-11T20:43:39.973Z,64.39
2022-12-11T20:46:15.107Z,67.04
2022-12-11T20:48:48.179Z,64.91
2022-12-11T20:51:25.990Z,63.28
2022-12-11T20:53:59.858Z,61.98
2022-12-11T20:56:33.692Z,61.05
2022-12-11T20:59:05.986Z,60.12
2022-12-11T21:01:38.187Z,57.77
2022-12-11T21:04:10.882Z,57.03
2022-12-11T21:06:43.092Z,58.62
2022-12-11T21:09:17.878Z,60.76
2022-12-11T21:11:50.756Z,65.05
2022-12-11T21:14:23.181Z,67.50
2022-12-11T21:16:55.591Z,65.22
2022-12-11T21:19:28.236Z,62.54
2022-12-11T21:22:00.767Z,60.89
2022-12-11T21:24:33.193Z,59.83
2022-12-11T21:27:05.641Z,57.31
2022-12-11T21:29:38.064Z,55.80
2022-12-11T21:32:10.565Z,57.94
2022-12-11T21:34:42.929Z,61.04
2022-12-11T21:37:15.146Z,64.81
2022-12-11T21:39:47.440Z,66.64
2022-12-11T21:42:20.103Z,65.35
2022-12-11T21:47:44.775Z,61.87
2022-12-11T21:50:17.144Z,60.61
2022-12-11T21:52:49.478Z,59.55
2022-12-11T21:55:21.781Z,57.51
2022-12-11T21:57:54.729Z,57.57
2022-12-11T22:00:28.288Z,58.92
2022-12-11T22:03:00.562Z,60.93
2022-12-11T22:05:33.874Z,64.92
2022-12-11T22:08:07.196Z,67.05
2022-12-11T22:10:39.541Z,66.13
2022-12-11T22:13:11.736Z,64.00
2022-12-11T22:15:43.989Z,62.47
2022-12-11T22:18:16.674Z,61.23
2022-12-11T22:20:49.519Z,58.73
2022-12-11T22:23:23.981Z,56.14
2022-12-11T22:25:56.894Z,56.47
2022-12-11T22:28:29.279Z,59.20
2022-12-11T22:31:02.297Z,61.42
2022-12-11T22:33:34.773Z,64.80
2022-12-11T22:36:08.007Z,67.40
2022-12-11T22:38:40.721Z,65.31
2022-12-11T22:41:22.184Z,62.86
2022-12-11T22:43:55.649Z,60.70
2022-12-11T22:46:30.830Z,59.64
2022-12-11T22:49:03.251Z,57.02
2022-12-11T22:51:35.755Z,56.18
2022-12-11T22:54:08.236Z,58.54
2022-12-11T22:56:41.536Z,59.95
2022-12-11T22:59:13.846Z,64.25
2022-12-11T23:01:46.370Z,66.96
2022-12-11T23:04:18.651Z,64.88
2022-12-11T23:06:51.456Z,62.86
2022-12-11T23:09:24.501Z,61.50
2022-12-11T23:11:58.665Z,60.04
2022-12-11T23:14:31.029Z,57.12
2022-12-11T23:17:03.192Z,55.98
2022-12-11T23:19:36.518Z,57.60
2022-12-11T23:22:09.227Z,60.49
2022-12-11T23:24:41.878Z,64.36
2022-12-11T23:27:14.494Z,66.79
2022-12-11T23:29:46.966Z,64.78
2022-12-11T23:32:19.253Z,63.69
2022-12-11T23:34:52.176Z,63.04
2022-12-11T23:37:24.739Z,61.93
2022-12-11T23:39:57.032Z,60.04
2022-12-11T23:42:29.519Z,57.99
2022-12-11T23:45:02.386Z,56.97
2022-12-11T23:47:34.699Z,58.53
2022-12-11T23:50:08.451Z,61.17
2022-12-11T23:52:40.755Z,65.11
2022-12-11T23:55:14.061Z,66.67
2022-12-11T23:57:46.507Z,64.94
